Domov               UVHVVR             MKGP            O straneh              
ZDRAVSTVENO VARSTVO RASTLIN
  MREŽA AGROMET. POSTAJ
 ► PROGNOSTIČNA OBVESTILA
AGROMETEOROLOŠKI PODATKI -
ARSO
OBVLADOVANJE TVEGANJ ZARADI
NEUGODNIH VREMENSKIH RAZMER
  ► NARAVNE NESREČE
  ► SUŠA/MOČA
  ► NAMAKANJE
  ► ŽLED (gozdarstvo)
KARTOGRAFSKI PRIKAZI
SPLETNE POVEZAVE
PROJEKTI IN PUBLIKACIJE

AGROMETEOROLOŠKA MREŽA: VREMENSKE POSTAJE IN FENOLOŠKA OPAZOVANJA

Pregled podatkov za lokacijo Šentjernej APS, meteorološka postaja 49205

Pregled senzorjev na lokaciji

ID Ime Zadnja
vrednost
Datum
zadnje
spremembe
Tip
senzorja
3728 Temperatura 2 m (°C) 11,33 °C 11.12.2017 10:00 50YA
3729 Relativna vlaga 2 m (% RH) 75,74 % RH 11.12.2017 10:00 50YA
3730 Omočenost lista (U) 0 U 11.12.2017 10:00 A730WET
3731 Sončno sevanje (W/m2) 103,85 W/m2 11.12.2017 10:00 Pyranometer SP-Lite
3733 Hitrost vetra (km/h) 12,72 km/h 11.12.2017 10:00 566.2S-176 (200km/h)
3734 Smer vetra (°) 285,21 ° 11.12.2017 10:00 566.2S-130
3735 Padavine (mm) 0 mm 11.12.2017 10:00 Rain-O-Matic

Pregled podatkov zadnjih 24 ur

Zap.
št.
Datum in čas Šentjernej APS
Hitrost
vetra
Omočenost
lista
Padavine Relativna
vlaga
2
m
Smer
vetra
Sončno
sevanje
Temperatura
2
m
0 11.12.2017 10:00 12,72 0 0 75,74 285,21 103,85 11,33
1 11.12.2017 09:30 8,12 0 0 95,09 180,91 77,39 4,79
2 11.12.2017 09:00 6,2 0 0 99,2 102,13 41,78 2,53
3 11.12.2017 08:30 8,55 0 0 96,25 96,32 27,5 3,18
4 11.12.2017 08:00 7 0 0 99,97 43,76 6,78 2,5
5 11.12.2017 07:30 4,74 1 0 100 109,05 0,49 1,59
6 11.12.2017 07:00 1,4 1 0 100 40,07 0,37 1,52
7 11.12.2017 06:30 5,56 1 0 100 345,77 0,27 1,44
8 11.12.2017 06:00 3,9 1 0 100 323,53 0,27 1,32
9 11.12.2017 05:30 4,96 10 0 100 228,05 0,31 1,1
10 11.12.2017 05:00 2,84 10 0 100 2,87 0,37 0,68
11 11.12.2017 04:30 2,41 10 0 100 196,07 0,31 0,38
12 11.12.2017 04:00 2,15 10 0 100 189,18 0,34 0,39
13 11.12.2017 03:30 2,1 10 0 100 71,86 0,31 0,48
14 11.12.2017 03:00 0,33 4 0 100 161,59 0,34 0,58
15 11.12.2017 02:30 0,95 5 0 100 200,37 0,34 0,68
16 11.12.2017 02:00 1,14 3 0 100 274,3 0,27 0,68
17 11.12.2017 01:30 1,2 2 0 100 231,66 0,34 0,75
18 11.12.2017 01:00 1,07 2 0 100 25,29 1,04
19 11.12.2017 00:30 0,77 1 0 100 292,48 1,09
20 11.12.2017 00:00 1,23 1 0 99,93 261,66 1,29
21 10.12.2017 23:30 0,51 2 0 99,92 199,59 1,29
22 10.12.2017 23:00 1,4 3 0 99,45 222,33 1,16
23 10.12.2017 22:30 0,07 9 0 98,54 218,06 1,13
24 10.12.2017 22:00 0,9 5 0 96,98 247,28 1,3
25 10.12.2017 21:30 0,27 1 0 95,16 214,28 1,49
26 10.12.2017 21:00 0,63 0 0 93,27 184,29 1,81
27 10.12.2017 20:30 1,41 0 0 91,9 221,31 1,82
28 10.12.2017 20:00 5,69 0 0 90,03 320,9 2,11
29 10.12.2017 19:30 5,75 0 0 87,89 303,1 2,18
30 10.12.2017 19:00 12,15 0 0 73,59 0,08 4,24
31 10.12.2017 18:30 16,97 0 0 67,43 304,36 5,09
32 10.12.2017 18:00 17,62 0 0 66,39 305,05 4,98
33 10.12.2017 17:30 17,73 0 0 66,87 303,42 4,72
34 10.12.2017 17:00 19,52 0 0 65,12 322,19 4,61
35 10.12.2017 16:30 12,8 0 0 62,51 287,56 4,4
36 10.12.2017 16:00 12,44 0 0 61,53 319,59 20,45 4,41
37 10.12.2017 15:30 19,81 0 0 59,1 272,9 64,48 4,76
38 10.12.2017 15:00 19,55 0 0 58,81 278,6 90,27 4,61
39 10.12.2017 14:30 17,23 0 0 80,15 292,69 114,63 3,03
40 10.12.2017 14:00 2,87 1 0 100 77,32 122,41 -1,82
41 10.12.2017 13:30 5,21 7 0 100 132,43 170,63 -2,46
42 10.12.2017 13:00 5,65 2 0 100 99,43 132,57 -3,22
43 10.12.2017 12:30 1,59 10 0 100 66,18 181,89 -3,12
44 10.12.2017 12:00 0,6 1 0 100 163,35 146,76 -3,83
45 10.12.2017 11:30 0,81 1 0 100 109,4 143,86 -4,01
46 10.12.2017 11:00 1,61 2 0 100 73,04 221,77 -3,63
47 10.12.2017 10:30 0,89 1 0 100 357,47 196,32 -3,65
© 2011 Ministrstvo za kmetijstvo, gozdarstvo in prehrano. Vse pravice pridržane.